Windstar — WDI3444 — position and weather

sailwx.info

Track history (hours):
 
Tides and Currents Weather Stations Pressure Air Temp Water Temp Dewpoint Dewpoint Depression Visibility Wind Speed Wind Dir Waves Ship Positions

Windstar

Owner: Millard, Stephen, Santa Barbara, CA. More information available from US FCC via Universal Licensing System and Coast Guard Vessel Documentation Center.

Last reported at 2017-Oct-09 00:26 UTC. Time now 2017-Oct-19 11:26 UTC.
Position N 34°24' W 119°41'.
Warning: this ship's position is 10 days out of date.

Length 16 m; draft 2.1 m.

Type: Sailing vessel. MMSI: 367688380.

Date/timePositionNaut miles runAvg speedWind from/ knotsBaromVisibWave heightAir tempDewpointWater temp
2017-Oct-09 00:26N 34°24' W 119°41'0 0.1
2017-Oct-09 00:00N 34°24' W 119°41'6 5.3
2017-Oct-08 22:49N 34°18' W 119°43'2 6.9
2017-Oct-08 22:31N 34°16' W 119°43'4 6.6
2017-Oct-08 21:51N 34°12' W 119°42'3 6.7
2017-Oct-08 21:25N 34°09' W 119°42'4 7.4
2017-Oct-08 20:52N 34°05' W 119°42'2 6.2
2017-Oct-08 20:29N 34°02' W 119°42'0 0.3
2017-Oct-08 18:56N 34°02' W 119°42'0 0.0
2017-Oct-08 18:26N 34°02' W 119°42'0 0.0
2017-Oct-08 17:50N 34°02' W 119°42'0 0.0
2017-Oct-08 17:29N 34°02' W 119°42'0 0.0
2017-Oct-08 16:44N 34°02' W 119°42'0 0.0
2017-Oct-08 16:29N 34°02' W 119°42'0 0.0
2017-Oct-08 15:59N 34°02' W 119°42'0 0.0
2017-Oct-08 11:26N 34°02' W 119°42'0 0.0
2017-Oct-08 10:59N 34°02' W 119°42'0 0.0
2017-Oct-08 10:20N 34°02' W 119°42'0 0.0
2017-Oct-08 09:53N 34°02' W 119°42'0 0.0
2017-Oct-08 01:47N 34°02' W 119°42'0 0.0
2017-Oct-08 01:29N 34°02' W 119°42'0 0.0
2017-Oct-08 00:59N 34°02' W 119°42'0 0.0
2017-Oct-08 00:26N 34°02' W 119°42'0 0.0
2017-Oct-07 23:53N 34°02' W 119°42'0 0.0
2017-Oct-07 23:29N 34°02' W 119°42'0 0.0
2017-Oct-07 11:41N 34°02' W 119°42'0 0.0
2017-Oct-07 10:56N 34°02' W 119°42'0 0.0
2017-Oct-07 05:50N 34°02' W 119°42'0 0.0
2017-Oct-07 05:23N 34°02' W 119°42'0 0.0
2017-Oct-07 04:44N 34°02' W 119°42'0 0.0
2017-Oct-07 04:26N 34°02' W 119°42'0 0.0
2017-Oct-07 02:08N 34°02' W 119°42'0 0.0
2017-Oct-07 01:59N 34°02' W 119°42'0 0.0
2017-Oct-06 20:32N 34°02' W 119°42'0 0.0
2017-Oct-06 20:08N 34°02' W 119°42'0 0.2
2017-Oct-06 19:56N 34°02' W 119°42'3 6.7
2017-Oct-06 19:29N 34°05' W 119°42'4 7.0
2017-Oct-06 18:54N 34°09' W 119°42'3 7.1
2017-Oct-06 18:28N 34°12' W 119°42'4 7.0
2017-Oct-06 17:56N 34°16' W 119°42'3 6.9
2017-Oct-06 17:28N 34°19' W 119°41'3 7.1
2017-Oct-06 17:00N 34°22' W 119°41'  
Track history (hours):
 
Tides and Currents Weather Stations Pressure Air Temp Water Temp Dewpoint Dewpoint Depression Visibility Wind Speed Wind Dir Waves Ship Positions

Windstar

Owner: Millard, Stephen, Santa Barbara, CA. More information available from US FCC via Universal Licensing System and Coast Guard Vessel Documentation Center.

Last reported at 2017-Oct-09 00:26 UTC. Time now 2017-Oct-19 11:26 UTC.
Position N 34°24' W 119°41'.
Warning: this ship's position is 10 days out of date.

Length 16 m; draft 2.1 m.

Type: Sailing vessel. MMSI: 367688380.

Date/timePositionNaut miles runAvg speedWind from/ knotsBaromVisibWave heightAir tempDewpointWater temp
2017-Oct-09 00:26N 34°24' W 119°41'0 0.1
2017-Oct-09 00:00N 34°24' W 119°41'6 5.3
2017-Oct-08 22:49N 34°18' W 119°43'2 6.9
2017-Oct-08 22:31N 34°16' W 119°43'4 6.6
2017-Oct-08 21:51N 34°12' W 119°42'3 6.7
2017-Oct-08 21:25N 34°09' W 119°42'4 7.4
2017-Oct-08 20:52N 34°05' W 119°42'2 6.2
2017-Oct-08 20:29N 34°02' W 119°42'0 0.3
2017-Oct-08 18:56N 34°02' W 119°42'0 0.0
2017-Oct-08 18:26N 34°02' W 119°42'0 0.0
2017-Oct-08 17:50N 34°02' W 119°42'0 0.0
2017-Oct-08 17:29N 34°02' W 119°42'0 0.0
2017-Oct-08 16:44N 34°02' W 119°42'0 0.0
2017-Oct-08 16:29N 34°02' W 119°42'0 0.0
2017-Oct-08 15:59N 34°02' W 119°42'0 0.0
2017-Oct-08 11:26N 34°02' W 119°42'0 0.0
2017-Oct-08 10:59N 34°02' W 119°42'0 0.0
2017-Oct-08 10:20N 34°02' W 119°42'0 0.0
2017-Oct-08 09:53N 34°02' W 119°42'0 0.0
2017-Oct-08 01:47N 34°02' W 119°42'0 0.0
2017-Oct-08 01:29N 34°02' W 119°42'0 0.0
2017-Oct-08 00:59N 34°02' W 119°42'0 0.0
2017-Oct-08 00:26N 34°02' W 119°42'0 0.0
2017-Oct-07 23:53N 34°02' W 119°42'0 0.0
2017-Oct-07 23:29N 34°02' W 119°42'0 0.0
2017-Oct-07 11:41N 34°02' W 119°42'0 0.0
2017-Oct-07 10:56N 34°02' W 119°42'0 0.0
2017-Oct-07 05:50N 34°02' W 119°42'0 0.0
2017-Oct-07 05:23N 34°02' W 119°42'0 0.0
2017-Oct-07 04:44N 34°02' W 119°42'0 0.0
2017-Oct-07 04:26N 34°02' W 119°42'0 0.0
2017-Oct-07 02:08N 34°02' W 119°42'0 0.0
2017-Oct-07 01:59N 34°02' W 119°42'0 0.0
2017-Oct-06 20:32N 34°02' W 119°42'0 0.0
2017-Oct-06 20:08N 34°02' W 119°42'0 0.2
2017-Oct-06 19:56N 34°02' W 119°42'3 6.7
2017-Oct-06 19:29N 34°05' W 119°42'4 7.0
2017-Oct-06 18:54N 34°09' W 119°42'3 7.1
2017-Oct-06 18:28N 34°12' W 119°42'4 7.0
2017-Oct-06 17:56N 34°16' W 119°42'3 6.9
2017-Oct-06 17:28N 34°19' W 119°41'3 7.1
2017-Oct-06 17:00N 34°22' W 119°41'  

Dump ship's entire track history